Mc Alester Regional Airport Mc Alester US
ICAO: KMLC
IATA: MLC
Category: Medium
Scheduled Services: No

Elevation: 770 ft
TransAlt. 18000 ft.

Airport Communications:
ASOS:135.125
FORT WORTH CNTR:132.2
RDO:122.65
CTAF/UNICOM:122.95

KMLC Zoom In..

Runways:

(A) RW 02 length 5602 ft width 100 ft
LOC 108.30 / hdg 14

(B) RW 20 length 5602 ft width 100 ft
LOC 108.30 / hdg 194

Location; KMLC
Day. 14 / Time. 13.53 Zulu
* Altimeter: 29.98
* Temperature: 22° c. 71.6°f.
* Wind from: 180° Speed 08 kn with Gusts up to 17 kn.
Dewpoint: 20° c.
Visibility: 10 Statute Miles.
Clouds: Scattered 6000 ft.
Clouds: Broken 7000 ft.
Clouds: Overcast 9000 ft.

KMLC 141353Z AUTO 18008G17KT 10SM SCT060 BKN070 OVC090 22/20 A2998 RMK AO2 RAB06E16 SLP142 P0000 T02170200


Wind From 180°
Speed 08 kn.

 
 
jpsmedia.com for Web Design worldairports.se 2018   terms of use